createdAt,value
2019-02-05T00:00:39.480Z,6.30
2019-02-05T00:03:08.913Z,6.20
2019-02-05T00:05:36.712Z,6.20
2019-02-05T00:08:05.887Z,6.20
2019-02-05T00:10:33.535Z,6.10
2019-02-05T00:13:01.500Z,6.20
2019-02-05T00:15:30.075Z,6.20
2019-02-05T00:17:58.499Z,6.20
2019-02-05T00:20:26.091Z,6.20
2019-02-05T00:22:54.196Z,6.10
2019-02-05T00:25:22.832Z,6.10
2019-02-05T00:27:50.655Z,6.20
2019-02-05T00:30:17.762Z,6.20
2019-02-05T00:32:45.734Z,6.20
2019-02-05T00:35:13.379Z,6.10
2019-02-05T00:37:42.420Z,6.10
2019-02-05T00:40:11.243Z,6.10
2019-02-05T00:42:38.387Z,6.10
2019-02-05T00:45:09.096Z,6.20
2019-02-05T00:47:36.983Z,6.20
2019-02-05T00:50:05.675Z,6.20
2019-02-05T00:52:32.831Z,6.30
2019-02-05T00:55:00.324Z,6.30
2019-02-05T00:57:29.283Z,6.30
2019-02-05T00:59:58.045Z,6.30
2019-02-05T01:02:26.076Z,6.20
2019-02-05T01:04:54.423Z,6.20
2019-02-05T01:07:21.955Z,6.20
2019-02-05T01:09:49.097Z,6.20
2019-02-05T01:12:16.459Z,6.20
2019-02-05T01:14:43.955Z,6.20
2019-02-05T01:17:13.323Z,6.20
2019-02-05T01:19:40.451Z,6.20
2019-02-05T01:22:09.039Z,6.10
2019-02-05T01:24:38.075Z,6.10
2019-02-05T01:27:05.174Z,6.20
2019-02-05T01:29:32.771Z,6.20
2019-02-05T01:32:00.331Z,6.20
2019-02-05T01:34:27.911Z,6.20
2019-02-05T01:36:56.612Z,6.20
2019-02-05T01:39:23.643Z,6.20
2019-02-05T01:41:51.340Z,6.10
2019-02-05T01:44:19.763Z,6.10
2019-02-05T01:46:47.862Z,6.20
2019-02-05T01:49:15.835Z,6.10
2019-02-05T01:51:44.124Z,6.10
2019-02-05T01:54:11.400Z,6.10
2019-02-05T01:56:40.670Z,6.10
2019-02-05T01:59:08.676Z,6.10
2019-02-05T02:01:36.663Z,6.10
2019-02-05T02:04:04.348Z,6.10
2019-02-05T02:06:31.874Z,6.00
2019-02-05T02:09:00.451Z,6.00
2019-02-05T02:11:29.079Z,6.00
2019-02-05T02:13:56.872Z,6.00
2019-02-05T02:16:24.823Z,5.90
2019-02-05T02:18:52.327Z,5.90
2019-02-05T02:21:21.618Z,5.80
2019-02-05T02:23:48.699Z,5.70
2019-02-05T02:26:15.842Z,5.80
2019-02-05T02:28:43.891Z,5.80
2019-02-05T02:31:11.225Z,5.80
2019-02-05T02:33:39.054Z,5.80
2019-02-05T02:36:07.584Z,5.70
2019-02-05T02:38:35.952Z,5.70
2019-02-05T02:41:04.699Z,5.80
2019-02-05T02:43:32.672Z,5.80
2019-02-05T02:45:59.788Z,5.60
2019-02-05T02:48:27.201Z,5.80
2019-02-05T02:50:55.528Z,5.80
2019-02-05T02:53:23.104Z,5.80
2019-02-05T02:55:51.321Z,5.80
2019-02-05T02:58:19.051Z,5.90
2019-02-05T03:00:47.013Z,5.90
2019-02-05T03:03:14.015Z,5.90
2019-02-05T03:05:44.293Z,5.80
2019-02-05T03:08:11.236Z,5.80
2019-02-05T03:10:39.349Z,5.80
2019-02-05T03:13:06.576Z,5.90
2019-02-05T03:15:33.873Z,5.90
2019-02-05T03:18:00.899Z,5.90
2019-02-05T03:20:28.483Z,5.90
2019-02-05T03:22:56.532Z,5.90
2019-02-05T03:25:25.108Z,5.90
2019-02-05T03:27:53.922Z,6.00
2019-02-05T03:30:21.901Z,5.90
2019-02-05T03:32:49.466Z,6.00
2019-02-05T03:35:18.699Z,5.90
2019-02-05T03:37:45.771Z,5.90
2019-02-05T03:41:04.876Z,6.00
2019-02-05T03:43:34.409Z,5.90
2019-02-05T03:46:04.831Z,5.90
2019-02-05T03:48:32.663Z,5.90
2019-02-05T03:51:14.984Z,5.80
2019-02-05T03:53:46.182Z,5.90
2019-02-05T03:56:29.864Z,5.90
2019-02-05T03:59:23.455Z,5.90
2019-02-05T04:02:06.085Z,5.90
2019-02-05T04:05:19.774Z,6.00
2019-02-05T04:08:31.980Z,5.90
2019-02-05T04:11:46.350Z,5.90
2019-02-05T04:14:49.860Z,6.00
2019-02-05T04:18:05.884Z,6.00
2019-02-05T04:21:20.348Z,6.00
2019-02-05T04:24:24.891Z,5.90
2019-02-05T04:27:21.279Z,5.90
2019-02-05T04:30:26.531Z,6.00
2019-02-05T04:33:23.212Z,6.00
2019-02-05T04:36:27.323Z,5.90
2019-02-05T04:39:20.965Z,5.90
2019-02-05T04:42:12.158Z,5.90
2019-02-05T04:45:19.071Z,6.00
2019-02-05T04:48:30.146Z,5.90
2019-02-05T04:51:14.555Z,6.00
2019-02-05T04:54:12.981Z,5.90
2019-02-05T04:57:21.899Z,6.00
2019-02-05T05:00:15.741Z,6.00
2019-02-05T05:03:40.036Z,6.00
2019-02-05T05:06:32.524Z,6.00
2019-02-05T05:09:37.969Z,6.00
2019-02-05T05:12:05.023Z,5.90
2019-02-05T05:14:32.107Z,5.90
2019-02-05T05:17:00.883Z,5.90
2019-02-05T05:19:28.271Z,6.00
2019-02-05T05:21:55.593Z,6.00
2019-02-05T05:24:22.896Z,6.00
2019-02-05T05:26:50.621Z,6.00
2019-02-05T05:29:18.594Z,6.10
2019-02-05T05:31:49.247Z,6.00
2019-02-05T05:34:17.201Z,6.00
2019-02-05T05:36:50.145Z,5.90
2019-02-05T05:39:18.587Z,5.90
2019-02-05T05:41:47.155Z,5.90
2019-02-05T05:44:15.527Z,6.00
2019-02-05T05:46:42.649Z,6.00
2019-02-05T05:49:09.953Z,6.00
2019-02-05T05:51:38.444Z,5.90
2019-02-05T05:54:05.835Z,5.90
2019-02-05T05:56:33.232Z,5.90
2019-02-05T05:59:00.681Z,5.90
2019-02-05T06:01:27.644Z,5.90
2019-02-05T06:03:55.282Z,5.90
2019-02-05T06:06:22.644Z,6.00
2019-02-05T06:08:50.152Z,5.90
2019-02-05T06:11:19.891Z,5.90
2019-02-05T06:13:48.656Z,6.00
2019-02-05T06:16:16.393Z,6.00
2019-02-05T06:18:44.311Z,6.00
2019-02-05T06:21:13.758Z,5.90
2019-02-05T06:23:41.893Z,5.90
2019-02-05T06:26:10.448Z,6.00
2019-02-05T06:28:37.868Z,5.90
2019-02-05T06:31:05.855Z,5.90
2019-02-05T06:33:33.833Z,5.90
2019-02-05T06:36:03.054Z,5.90
2019-02-05T06:38:30.325Z,5.90
2019-02-05T06:40:58.556Z,5.90
2019-02-05T06:43:26.228Z,5.80
2019-02-05T06:45:53.737Z,5.80
2019-02-05T06:48:21.552Z,5.80
2019-02-05T06:50:50.476Z,5.90
2019-02-05T06:53:17.480Z,5.90
2019-02-05T06:55:45.455Z,6.00
2019-02-05T06:58:13.335Z,5.90
2019-02-05T07:00:42.736Z,5.90
2019-02-05T07:03:11.284Z,5.90
2019-02-05T07:05:38.271Z,5.80
2019-02-05T07:08:05.895Z,5.90
2019-02-05T07:10:33.708Z,5.90
2019-02-05T07:13:00.815Z,5.90
2019-02-05T07:15:28.441Z,5.90
2019-02-05T07:17:55.955Z,5.90
2019-02-05T07:20:24.855Z,5.90
2019-02-05T07:22:55.643Z,5.90
2019-02-05T07:25:22.515Z,5.90
2019-02-05T07:27:51.720Z,5.90
2019-02-05T07:30:21.594Z,5.90
2019-02-05T07:32:49.439Z,5.90
2019-02-05T07:35:17.368Z,5.90
2019-02-05T07:37:45.818Z,5.80
2019-02-05T07:40:15.376Z,5.80
2019-02-05T07:42:44.036Z,5.90
2019-02-05T07:45:13.951Z,5.80
2019-02-05T07:47:43.028Z,5.80
2019-02-05T07:50:15.605Z,5.80
2019-02-05T07:52:43.375Z,5.80
2019-02-05T07:55:11.452Z,5.80
2019-02-05T07:57:39.091Z,5.90
2019-02-05T08:00:16.720Z,5.90
2019-02-05T08:02:45.001Z,5.90
2019-02-05T08:05:17.371Z,5.90
2019-02-05T08:07:44.941Z,5.80
2019-02-05T08:10:14.055Z,5.80
2019-02-05T08:12:41.966Z,5.80
2019-02-05T08:15:12.459Z,5.80
2019-02-05T08:17:39.970Z,5.80
2019-02-05T08:20:08.144Z,5.80
2019-02-05T08:22:35.284Z,5.80
2019-02-05T08:25:04.820Z,5.80
2019-02-05T08:27:32.372Z,5.80
2019-02-05T08:30:00.493Z,5.90
2019-02-05T08:32:27.488Z,5.90
2019-02-05T08:34:55.028Z,5.90
2019-02-05T08:37:22.811Z,5.90
2019-02-05T08:39:49.743Z,5.90
2019-02-05T08:42:17.084Z,6.00
2019-02-05T08:44:44.087Z,5.90
2019-02-05T08:47:11.307Z,5.90
2019-02-05T08:49:41.428Z,6.00
2019-02-05T08:52:09.379Z,6.00
2019-02-05T08:54:37.979Z,5.90
2019-02-05T08:57:08.918Z,6.00
2019-02-05T08:59:35.927Z,5.90
2019-02-05T09:02:03.460Z,6.00
2019-02-05T09:04:32.391Z,6.00
2019-02-05T09:06:59.973Z,6.00
2019-02-05T09:09:28.184Z,6.00
2019-02-05T09:11:55.343Z,6.00
2019-02-05T09:14:24.287Z,6.10
2019-02-05T09:16:52.131Z,6.00
2019-02-05T09:19:19.383Z,6.10
2019-02-05T09:21:46.380Z,6.20
2019-02-05T09:24:14.511Z,6.10
2019-02-05T09:26:43.536Z,6.20
2019-02-05T09:29:10.956Z,6.20
2019-02-05T09:31:39.471Z,6.20
2019-02-05T09:34:06.767Z,6.20
2019-02-05T09:36:34.463Z,6.30
2019-02-05T09:39:05.331Z,6.30
2019-02-05T09:41:34.021Z,6.40
2019-02-05T09:44:01.255Z,6.30
2019-02-05T09:46:29.535Z,6.30
2019-02-05T09:48:58.107Z,6.30
2019-02-05T09:51:25.479Z,6.40
2019-02-05T09:53:52.792Z,6.30
2019-02-05T09:56:20.171Z,6.40
2019-02-05T09:58:47.195Z,6.30
2019-02-05T10:01:16.632Z,6.30
2019-02-05T10:03:44.740Z,6.40
2019-02-05T10:06:13.028Z,6.40
2019-02-05T10:08:42.771Z,6.40
2019-02-05T10:11:10.340Z,6.40
2019-02-05T10:13:37.415Z,6.40
2019-02-05T10:16:04.642Z,6.40
2019-02-05T10:18:31.771Z,6.40
2019-02-05T10:20:59.047Z,6.50
2019-02-05T10:23:26.068Z,6.50
2019-02-05T10:25:53.760Z,6.50
2019-02-05T10:28:22.747Z,6.50
2019-02-05T10:30:50.928Z,6.60
2019-02-05T10:33:18.991Z,6.50
2019-02-05T10:35:46.491Z,6.60
2019-02-05T10:38:15.243Z,6.60
2019-02-05T10:40:42.807Z,6.80
2019-02-05T10:43:10.637Z,6.70
2019-02-05T10:45:38.234Z,6.80
2019-02-05T10:48:07.959Z,6.80
2019-02-05T10:50:35.122Z,6.80
2019-02-05T10:53:04.258Z,6.90
2019-02-05T10:55:32.760Z,6.90
2019-02-05T10:58:00.839Z,6.90
2019-02-05T11:00:28.910Z,6.90
2019-02-05T11:03:01.131Z,6.90
2019-02-05T11:05:30.260Z,6.90
2019-02-05T11:07:58.203Z,6.90
2019-02-05T11:10:25.471Z,6.90
2019-02-05T11:12:53.098Z,6.90
2019-02-05T11:15:23.400Z,6.90
2019-02-05T11:17:51.352Z,6.90
2019-02-05T11:20:20.759Z,7.00
2019-02-05T11:22:48.463Z,7.00
2019-02-05T11:25:16.055Z,7.00
2019-02-05T11:27:45.743Z,7.10
2019-02-05T11:30:23.805Z,7.00
2019-02-05T11:32:52.961Z,7.10
2019-02-05T11:35:21.778Z,7.20
2019-02-05T11:37:49.463Z,7.20
2019-02-05T11:40:23.753Z,7.30
2019-02-05T11:42:51.643Z,7.40
2019-02-05T11:45:20.369Z,7.50
2019-02-05T11:47:48.562Z,7.50
2019-02-05T11:50:16.961Z,7.60
2019-02-05T11:52:46.192Z,7.60
2019-02-05T11:55:15.544Z,7.60
2019-02-05T11:57:43.559Z,7.60
2019-02-05T12:00:17.517Z,7.60
2019-02-05T12:02:45.515Z,7.60
2019-02-05T12:05:12.833Z,7.60
2019-02-05T12:07:41.351Z,7.50
2019-02-05T12:10:10.027Z,7.60
2019-02-05T12:12:38.927Z,7.60
2019-02-05T12:15:08.100Z,7.60
2019-02-05T12:17:35.204Z,7.50
2019-02-05T12:20:05.252Z,7.60
2019-02-05T12:22:32.843Z,7.50
2019-02-05T12:25:00.232Z,7.60
2019-02-05T12:27:27.765Z,7.60
2019-02-05T12:29:55.631Z,7.70
2019-02-05T12:32:23.027Z,7.70
2019-02-05T12:34:50.444Z,7.80
2019-02-05T12:37:18.231Z,7.80
2019-02-05T12:39:45.867Z,7.80
2019-02-05T12:42:14.040Z,7.80
2019-02-05T12:44:42.488Z,7.80
2019-02-05T12:47:09.716Z,7.80
2019-02-05T12:49:38.324Z,7.70
2019-02-05T12:52:05.837Z,7.70
2019-02-05T12:54:32.936Z,7.70
2019-02-05T12:57:01.859Z,7.80
2019-02-05T12:59:30.646Z,7.70
2019-02-05T13:01:57.785Z,7.80
2019-02-05T13:04:26.755Z,7.80
2019-02-05T13:06:55.380Z,7.80
2019-02-05T13:09:22.892Z,7.80
2019-02-05T13:11:51.266Z,7.80
2019-02-05T13:14:20.100Z,7.80
2019-02-05T13:16:48.976Z,7.80
2019-02-05T13:19:16.449Z,7.90
2019-02-05T13:21:43.913Z,7.90
2019-02-05T13:24:11.074Z,7.90
2019-02-05T13:26:39.983Z,7.80
2019-02-05T13:29:09.243Z,7.80
2019-02-05T13:31:37.379Z,7.80
2019-02-05T13:34:06.374Z,7.80
2019-02-05T13:36:33.449Z,7.80
2019-02-05T13:39:01.256Z,7.90
2019-02-05T13:41:29.130Z,7.80
2019-02-05T13:43:56.716Z,7.90
2019-02-05T13:46:25.523Z,7.90
2019-02-05T13:48:52.528Z,7.90
2019-02-05T13:51:21.591Z,7.90
2019-02-05T13:53:49.616Z,7.90
2019-02-05T13:56:17.239Z,8.00
2019-02-05T13:58:46.095Z,8.00
2019-02-05T14:01:19.983Z,7.90
2019-02-05T14:03:43.405Z,7.90
2019-02-05T14:06:10.624Z,8.00
2019-02-05T14:08:38.549Z,8.00
2019-02-05T14:11:05.580Z,8.00
2019-02-05T14:13:34.472Z,8.00
2019-02-05T14:16:02.995Z,8.00
2019-02-05T14:18:30.322Z,8.00
2019-02-05T14:20:59.147Z,8.00
2019-02-05T14:23:28.048Z,7.90
2019-02-05T14:25:55.154Z,7.90
2019-02-05T14:28:22.186Z,7.90
2019-02-05T14:30:54.919Z,7.90
2019-02-05T14:33:23.465Z,7.90
2019-02-05T14:35:51.643Z,7.90
2019-02-05T14:38:18.964Z,7.90
2019-02-05T14:40:46.027Z,7.90
2019-02-05T14:43:13.120Z,7.90
2019-02-05T14:45:41.631Z,7.90
2019-02-05T14:48:09.979Z,7.90
2019-02-05T14:50:38.152Z,7.90
2019-02-05T14:53:07.809Z,7.90
2019-02-05T14:55:36.261Z,8.00
2019-02-05T14:58:05.384Z,8.00
2019-02-05T15:00:33.171Z,8.00
2019-02-05T15:03:03.332Z,8.00
2019-02-05T15:05:32.550Z,8.00
2019-02-05T15:08:00.067Z,7.90
2019-02-05T15:10:27.701Z,7.90
2019-02-05T15:12:54.992Z,8.00
2019-02-05T15:15:22.314Z,7.80
2019-02-05T15:17:50.007Z,7.90
2019-02-05T15:20:20.451Z,7.80
2019-02-05T15:22:48.073Z,7.80
2019-02-05T15:25:15.703Z,7.80
2019-02-05T15:27:43.147Z,7.80
2019-02-05T15:30:15.508Z,7.80
2019-02-05T15:32:52.585Z,7.80
2019-02-05T15:35:20.855Z,7.80
2019-02-05T15:37:48.859Z,7.70
2019-02-05T15:40:16.500Z,7.70
2019-02-05T15:42:44.659Z,7.70
2019-02-05T15:45:12.616Z,7.70
2019-02-05T15:47:41.607Z,7.60
2019-02-05T15:50:10.655Z,7.80
2019-02-05T15:52:38.851Z,7.80
2019-02-05T15:55:06.247Z,7.80
2019-02-05T15:57:33.509Z,7.60
2019-02-05T16:00:01.510Z,7.50
2019-02-05T16:02:29.615Z,7.50
2019-02-05T16:04:56.752Z,7.40
2019-02-05T16:07:25.313Z,7.40
2019-02-05T16:09:52.735Z,7.50
2019-02-05T16:12:20.089Z,7.50
2019-02-05T16:14:48.255Z,7.60
2019-02-05T16:17:15.512Z,7.60
2019-02-05T16:19:44.108Z,7.50
2019-02-05T16:22:11.929Z,7.50
2019-02-05T16:24:39.044Z,7.50
2019-02-05T16:27:06.833Z,7.50
2019-02-05T16:29:34.574Z,7.50
2019-02-05T16:32:03.220Z,7.50
2019-02-05T16:34:30.180Z,7.50
2019-02-05T16:36:58.008Z,7.50
2019-02-05T16:39:26.923Z,7.50
2019-02-05T16:41:55.043Z,7.50
2019-02-05T16:44:22.172Z,7.40
2019-02-05T16:46:50.189Z,7.30
2019-02-05T16:49:17.609Z,7.30
2019-02-05T16:51:46.538Z,7.30
2019-02-05T16:54:13.708Z,7.30
2019-02-05T16:56:41.111Z,7.30
2019-02-05T16:59:08.288Z,7.30
2019-02-05T17:01:35.946Z,7.30
2019-02-05T17:04:03.234Z,7.20
2019-02-05T17:06:30.247Z,7.20
2019-02-05T17:08:58.431Z,7.20
2019-02-05T17:11:25.763Z,7.20
2019-02-05T17:13:54.784Z,7.20
2019-02-05T17:16:21.698Z,7.20
2019-02-05T17:18:49.905Z,7.20
2019-02-05T17:21:18.031Z,7.20
2019-02-05T17:23:45.500Z,7.00
2019-02-05T17:26:12.603Z,7.00
2019-02-05T17:28:40.163Z,7.10
2019-02-05T17:31:08.000Z,7.10
2019-02-05T17:33:36.383Z,7.10
2019-02-05T17:36:03.508Z,7.10
2019-02-05T17:38:30.723Z,7.10
2019-02-05T17:40:57.995Z,7.10
2019-02-05T17:43:25.779Z,7.10
2019-02-05T17:45:53.580Z,7.10
2019-02-05T17:48:21.717Z,7.20
2019-02-05T17:50:48.883Z,7.10
2019-02-05T17:53:16.593Z,7.10
2019-02-05T17:55:44.171Z,7.10
2019-02-05T17:58:11.613Z,7.00
2019-02-05T18:00:48.203Z,6.90
2019-02-05T18:03:16.639Z,7.00
2019-02-05T18:05:45.218Z,6.90
2019-02-05T18:08:13.592Z,7.00
2019-02-05T18:10:42.062Z,7.00
2019-02-05T18:13:10.010Z,7.10
2019-02-05T18:15:37.994Z,7.10
2019-02-05T18:18:05.476Z,7.10
2019-02-05T18:20:33.528Z,7.10
2019-02-05T18:23:00.796Z,7.10
2019-02-05T18:25:28.039Z,7.00
2019-02-05T18:27:56.899Z,7.00
2019-02-05T18:30:26.495Z,7.10
2019-02-05T18:33:03.222Z,7.10
2019-02-05T18:35:23.604Z,7.10
2019-02-05T18:37:50.987Z,7.10
2019-02-05T18:40:19.679Z,7.10
2019-02-05T18:42:47.423Z,7.10
2019-02-05T18:45:15.097Z,7.20
2019-02-05T18:47:43.544Z,7.20
2019-02-05T18:50:13.877Z,7.20
2019-02-05T18:52:42.403Z,7.20
2019-02-05T18:55:10.550Z,7.20
2019-02-05T18:57:38.640Z,7.20
2019-02-05T19:00:15.696Z,7.20
2019-02-05T19:02:45.470Z,7.10
2019-02-05T19:05:15.111Z,7.10
2019-02-05T19:07:45.944Z,7.10
2019-02-05T19:10:17.053Z,7.00
2019-02-05T19:12:46.074Z,7.00
2019-02-05T19:15:15.623Z,7.10
2019-02-05T19:17:44.024Z,7.10
2019-02-05T19:20:14.011Z,7.00
2019-02-05T19:22:42.800Z,7.10
2019-02-05T19:25:29.788Z,7.20
2019-02-05T19:27:57.027Z,7.10
2019-02-05T19:30:26.039Z,7.10
2019-02-05T19:32:55.776Z,7.00
2019-02-05T19:35:24.091Z,7.00
2019-02-05T19:37:51.555Z,7.00
2019-02-05T19:40:20.584Z,7.10
2019-02-05T19:42:47.816Z,7.10
2019-02-05T19:45:40.569Z,7.00
2019-02-05T19:48:11.826Z,7.00
2019-02-05T19:50:39.630Z,7.00
2019-02-05T19:53:07.644Z,7.00
2019-02-05T19:55:35.882Z,7.00
2019-02-05T19:58:04.658Z,7.00
2019-02-05T20:00:32.180Z,7.00
2019-02-05T20:02:59.317Z,7.00
2019-02-05T20:05:26.424Z,6.90
2019-02-05T20:07:53.524Z,6.90
2019-02-05T20:10:20.715Z,6.90
2019-02-05T20:12:49.938Z,6.90
2019-02-05T20:15:19.599Z,6.90
2019-02-05T20:17:46.780Z,6.90
2019-02-05T20:20:14.459Z,6.90
2019-02-05T20:22:41.735Z,6.80
2019-02-05T20:25:10.813Z,6.80
2019-02-05T20:27:38.529Z,6.70
2019-02-05T20:30:06.877Z,6.70
2019-02-05T20:32:33.950Z,6.60
2019-02-05T20:35:03.231Z,6.70
2019-02-05T20:37:30.474Z,6.90
2019-02-05T20:39:58.243Z,6.90
2019-02-05T20:42:25.709Z,6.80
2019-02-05T20:44:53.754Z,6.60
2019-02-05T20:47:20.872Z,6.60
2019-02-05T20:49:48.067Z,6.60
2019-02-05T20:52:15.523Z,6.70
2019-02-05T20:54:42.747Z,6.70
2019-02-05T20:57:09.960Z,6.70
2019-02-05T20:59:39.129Z,6.70
2019-02-05T21:02:06.540Z,6.70
2019-02-05T21:04:35.508Z,6.60
2019-02-05T21:07:04.398Z,6.60
2019-02-05T21:09:31.637Z,6.70
2019-02-05T21:12:00.552Z,6.70
2019-02-05T21:14:29.007Z,6.70
2019-02-05T21:16:57.623Z,6.70
2019-02-05T21:19:24.979Z,6.80
2019-02-05T21:21:54.575Z,6.70
2019-02-05T21:24:22.279Z,6.80
2019-02-05T21:26:49.784Z,6.70
2019-02-05T21:29:18.023Z,6.70
2019-02-05T21:31:47.044Z,6.70
2019-02-05T21:34:16.021Z,6.70
2019-02-05T21:36:44.287Z,6.70
2019-02-05T21:39:11.584Z,6.70
2019-02-05T21:41:39.283Z,6.60
2019-02-05T21:44:07.795Z,6.60
2019-02-05T21:46:34.771Z,6.60
2019-02-05T21:49:01.931Z,6.60
2019-02-05T21:51:39.830Z,6.60
2019-02-05T21:53:58.383Z,6.60
2019-02-05T21:56:25.632Z,6.60
2019-02-05T21:58:53.589Z,6.60
2019-02-05T22:01:22.623Z,6.60
2019-02-05T22:03:50.131Z,6.60
2019-02-05T22:06:17.429Z,6.50
2019-02-05T22:08:44.835Z,6.50
2019-02-05T22:11:12.128Z,6.50
2019-02-05T22:13:39.535Z,6.60
2019-02-05T22:16:06.603Z,6.60
2019-02-05T22:18:33.792Z,6.60
2019-02-05T22:21:02.179Z,6.30
2019-02-05T22:23:29.327Z,6.40
2019-02-05T22:25:56.313Z,6.40
2019-02-05T22:28:23.703Z,6.50
2019-02-05T22:30:51.031Z,6.40
2019-02-05T22:33:19.376Z,6.40
2019-02-05T22:35:46.288Z,6.30
2019-02-05T22:38:13.499Z,6.30
2019-02-05T22:40:41.767Z,6.40
2019-02-05T22:43:11.148Z,6.30
2019-02-05T22:45:40.985Z,6.30
2019-02-05T22:48:08.967Z,6.30
2019-02-05T22:50:36.448Z,6.30
2019-02-05T22:53:03.792Z,6.20
2019-02-05T22:55:31.128Z,6.10
2019-02-05T22:58:00.783Z,6.20
2019-02-05T23:00:47.475Z,6.20
2019-02-05T23:03:26.676Z,6.20
2019-02-05T23:06:33.452Z,6.10
2019-02-05T23:09:14.525Z,6.10
2019-02-05T23:11:53.075Z,6.00
2019-02-05T23:14:20.715Z,6.10
2019-02-05T23:16:48.099Z,6.00
2019-02-05T23:19:16.207Z,6.00
2019-02-05T23:21:43.771Z,6.00
2019-02-05T23:24:11.265Z,5.90
2019-02-05T23:26:38.360Z,5.90
2019-02-05T23:29:06.347Z,5.80
2019-02-05T23:31:33.664Z,5.90
2019-02-05T23:34:01.266Z,5.90
2019-02-05T23:36:30.514Z,5.90
2019-02-05T23:38:57.744Z,5.90
2019-02-05T23:41:25.085Z,5.90
2019-02-05T23:43:52.527Z,5.90
2019-02-05T23:46:20.784Z,5.80
2019-02-05T23:48:48.249Z,5.60
2019-02-05T23:51:16.603Z,5.60
2019-02-05T23:53:43.715Z,5.60
2019-02-05T23:56:11.492Z,5.70
2019-02-05T23:58:39.355Z,5.70
